createdAt,value
2018-06-01T00:01:36.007Z,96.00
2018-06-01T00:04:04.240Z,95.70
2018-06-01T00:06:31.664Z,95.70
2018-06-01T00:08:59.099Z,95.90
2018-06-01T00:11:27.295Z,95.50
2018-06-01T00:13:54.731Z,95.90
2018-06-01T00:16:22.939Z,95.80
2018-06-01T00:18:50.423Z,95.70
2018-06-01T00:21:17.865Z,95.80
2018-06-01T00:23:45.341Z,95.60
2018-06-01T00:26:12.795Z,95.60
2018-06-01T00:28:40.257Z,95.60
2018-06-01T00:31:07.692Z,95.90
2018-06-01T00:33:35.131Z,95.90
2018-06-01T00:36:03.253Z,96.00
2018-06-01T00:38:30.688Z,96.00
2018-06-01T00:40:58.167Z,96.20
2018-06-01T00:43:25.610Z,96.50
2018-06-01T00:45:53.048Z,96.60
2018-06-01T00:48:20.498Z,96.60
2018-06-01T00:50:48.690Z,96.50
2018-06-01T00:53:16.115Z,96.50
2018-06-01T00:55:44.318Z,96.50
2018-06-01T00:58:11.743Z,96.40
2018-06-01T01:00:39.951Z,96.60
2018-06-01T01:03:07.382Z,96.60
2018-06-01T01:05:35.588Z,96.90
2018-06-01T01:08:03.276Z,96.90
2018-06-01T01:10:30.729Z,96.90
2018-06-01T01:12:58.177Z,96.70
2018-06-01T01:15:25.607Z,96.70
2018-06-01T01:17:53.036Z,96.70
2018-06-01T01:20:20.471Z,96.60
2018-06-01T01:22:47.919Z,96.70
2018-06-01T01:25:15.342Z,96.50
2018-06-01T01:27:42.776Z,96.60
2018-06-01T01:30:10.990Z,96.60
2018-06-01T01:32:38.427Z,96.60
2018-06-01T01:35:06.372Z,96.50
2018-06-01T01:37:34.572Z,96.80
2018-06-01T01:40:02.047Z,96.80
2018-06-01T01:42:29.488Z,96.60
2018-06-01T01:44:56.919Z,96.60
2018-06-01T01:47:25.136Z,96.90
2018-06-01T01:49:54.351Z,96.80
2018-06-01T01:52:21.782Z,96.80
2018-06-01T01:54:49.216Z,97.00
2018-06-01T01:57:17.424Z,96.70
2018-06-01T01:59:44.872Z,96.70
2018-06-01T02:02:12.348Z,96.90
2018-06-01T02:04:39.770Z,96.90
2018-06-01T02:07:07.972Z,96.90
2018-06-01T02:09:35.399Z,96.90
2018-06-01T02:12:03.379Z,96.90
2018-06-01T02:14:30.763Z,97.20
2018-06-01T02:16:58.202Z,96.80
2018-06-01T02:19:25.640Z,96.60
2018-06-01T02:21:53.836Z,96.60
2018-06-01T02:24:21.287Z,96.60
2018-06-01T02:26:48.724Z,96.70
2018-06-01T02:29:16.924Z,96.80
2018-06-01T02:31:44.387Z,96.80
2018-06-01T02:34:11.811Z,97.00
2018-06-01T02:36:40.012Z,96.90
2018-06-01T02:39:07.434Z,96.90
2018-06-01T02:41:35.654Z,97.40
2018-06-01T02:44:03.449Z,97.00
2018-06-01T02:46:30.893Z,97.30
2018-06-01T02:48:58.320Z,97.20
2018-06-01T02:51:26.516Z,97.40
2018-06-01T02:53:53.963Z,97.40
2018-06-01T02:56:21.400Z,97.30
2018-06-01T02:58:49.604Z,97.20
2018-06-01T03:01:17.970Z,97.20
2018-06-01T03:03:46.157Z,97.20
2018-06-01T03:06:13.598Z,97.20
2018-06-01T03:08:41.784Z,97.40
2018-06-01T03:11:09.211Z,97.30
2018-06-01T03:13:37.421Z,97.20
2018-06-01T03:16:04.865Z,97.10
2018-06-01T03:18:32.300Z,97.30
2018-06-01T03:21:00.495Z,97.70
2018-06-01T03:23:27.919Z,97.70
2018-06-01T03:25:55.360Z,97.50
2018-06-01T03:28:22.795Z,97.50
2018-06-01T03:30:50.241Z,97.30
2018-06-01T03:33:17.663Z,97.20
2018-06-01T03:35:45.884Z,97.20
2018-06-01T03:38:13.309Z,97.20
2018-06-01T03:40:40.749Z,97.70
2018-06-01T03:43:08.947Z,97.50
2018-06-01T03:45:36.389Z,97.50
2018-06-01T03:48:04.583Z,97.50
2018-06-01T03:50:32.025Z,97.40
2018-06-01T03:53:00.224Z,97.10
2018-06-01T03:55:27.668Z,97.10
2018-06-01T03:57:55.144Z,96.90
2018-06-01T04:00:22.556Z,96.90
2018-06-01T04:02:50.047Z,97.20
2018-06-01T04:05:17.458Z,96.90
2018-06-01T04:07:45.676Z,97.00
2018-06-01T04:10:13.864Z,97.10
2018-06-01T04:12:41.311Z,97.10
2018-06-01T04:15:08.743Z,97.50
2018-06-01T04:17:36.944Z,96.90
2018-06-01T04:20:04.380Z,96.90
2018-06-01T04:22:32.571Z,96.70
2018-06-01T04:25:00.748Z,96.70
2018-06-01T04:27:28.941Z,96.20
2018-06-01T04:29:56.928Z,96.20
2018-06-01T04:32:24.364Z,96.00
2018-06-01T04:34:51.804Z,95.90
2018-06-01T04:37:19.413Z,95.70
2018-06-01T04:39:51.825Z,95.80
2018-06-01T04:42:19.392Z,95.60
2018-06-01T04:44:47.604Z,94.80
2018-06-01T04:47:15.056Z,94.80
2018-06-01T04:49:42.490Z,94.90
2018-06-01T04:52:09.932Z,94.70
2018-06-01T04:54:38.132Z,94.30
2018-06-01T04:57:05.570Z,94.20
2018-06-01T04:59:33.776Z,94.70
2018-06-01T05:02:01.221Z,94.60
2018-06-01T05:04:28.733Z,95.00
2018-06-01T05:06:56.175Z,95.10
2018-06-01T05:09:23.630Z,95.00
2018-06-01T05:11:51.063Z,94.70
2018-06-01T05:14:18.530Z,94.90
2018-06-01T05:16:45.962Z,94.80
2018-06-01T05:19:13.391Z,94.70
2018-06-01T05:21:40.831Z,94.90
2018-06-01T05:24:08.278Z,94.40
2018-06-01T05:26:35.719Z,94.30
2018-06-01T05:29:03.815Z,93.90
2018-06-01T05:31:31.293Z,93.90
2018-06-01T05:33:58.696Z,94.00
2018-06-01T05:36:26.119Z,93.80
2018-06-01T05:38:54.332Z,93.50
2018-06-01T05:41:21.759Z,93.50
2018-06-01T05:43:49.975Z,93.70
2018-06-01T05:46:17.449Z,93.60
2018-06-01T05:48:45.712Z,92.70
2018-06-01T05:51:13.127Z,92.60
2018-06-01T05:53:40.583Z,92.10
2018-06-01T05:56:08.777Z,91.00
2018-06-01T05:58:36.213Z,91.00
2018-06-01T06:01:03.826Z,90.50
2018-06-01T06:03:31.271Z,91.30
2018-06-01T06:05:58.715Z,91.80
2018-06-01T06:08:26.155Z,91.90
2018-06-01T06:10:54.347Z,92.20
2018-06-01T06:13:21.815Z,92.20
2018-06-01T06:15:49.973Z,91.70
2018-06-01T06:18:17.429Z,91.70
2018-06-01T06:20:45.619Z,91.40
2018-06-01T06:23:13.056Z,91.30
2018-06-01T06:25:40.549Z,91.40
2018-06-01T06:28:08.709Z,91.00
2018-06-01T06:30:36.147Z,91.00
2018-06-01T06:33:04.649Z,91.20
2018-06-01T06:35:32.073Z,91.10
2018-06-01T06:38:00.284Z,91.00
2018-06-01T06:40:27.710Z,91.00
2018-06-01T06:42:55.150Z,91.30
2018-06-01T06:45:23.342Z,91.20
2018-06-01T06:47:51.547Z,91.00
2018-06-01T06:50:18.980Z,91.00
2018-06-01T06:52:46.420Z,91.20
2018-06-01T06:55:13.892Z,91.40
2018-06-01T06:57:41.292Z,91.80
2018-06-01T07:00:08.736Z,91.30
2018-06-01T07:02:36.183Z,91.60
2018-06-01T07:05:03.988Z,91.50
2018-06-01T07:07:32.356Z,91.60
2018-06-01T07:09:59.797Z,91.60
2018-06-01T07:12:27.227Z,91.90
2018-06-01T07:14:54.666Z,91.90
2018-06-01T07:17:22.904Z,91.70
2018-06-01T07:19:50.360Z,91.60
2018-06-01T07:22:17.796Z,92.10
2018-06-01T07:24:45.226Z,92.20
2018-06-01T07:27:12.651Z,92.60
2018-06-01T07:29:40.132Z,92.60
2018-06-01T07:32:08.332Z,92.90
2018-06-01T07:34:35.773Z,92.90
2018-06-01T07:37:04.879Z,93.10
2018-06-01T07:39:32.311Z,93.10
2018-06-01T07:42:00.516Z,93.40
2018-06-01T07:44:27.976Z,93.40
2018-06-01T07:46:55.453Z,93.50
2018-06-01T07:49:22.885Z,93.60
2018-06-01T07:51:50.326Z,94.10
2018-06-01T07:54:18.648Z,95.50
2018-06-01T07:56:46.071Z,95.40
2018-06-01T07:59:13.506Z,95.50
2018-06-01T08:01:40.954Z,96.30
2018-06-01T08:04:08.396Z,96.40
2018-06-01T08:06:35.825Z,96.60
2018-06-01T08:09:04.964Z,96.80
2018-06-01T08:11:34.209Z,97.10
2018-06-01T08:14:02.401Z,98.30
2018-06-01T08:16:29.824Z,98.30
2018-06-01T08:18:57.275Z,98.30
2018-06-01T08:21:25.584Z,98.20
2018-06-01T08:23:53.018Z,98.10
2018-06-01T08:26:21.220Z,98.20
2018-06-01T08:28:48.646Z,98.20
2018-06-01T08:31:16.844Z,98.10
2018-06-01T08:33:44.295Z,98.10
2018-06-01T08:36:12.476Z,99.00
2018-06-01T08:38:39.913Z,99.00
2018-06-01T08:41:08.108Z,99.20
2018-06-01T08:43:35.550Z,99.50
2018-06-01T08:46:04.659Z,99.50
2018-06-01T08:48:32.107Z,99.50
2018-06-01T08:51:00.406Z,99.40
2018-06-01T08:53:27.829Z,99.30
2018-06-01T08:55:56.051Z,99.70
2018-06-01T08:58:23.475Z,99.70
2018-06-01T09:00:50.970Z,99.40
2018-06-01T09:03:18.427Z,99.40
2018-06-01T09:05:45.883Z,99.60
2018-06-01T09:08:13.336Z,99.20
2018-06-01T09:10:40.767Z,99.60
2018-06-01T09:13:08.194Z,99.70
2018-06-01T09:15:35.637Z,99.50
2018-06-01T09:18:03.079Z,99.40
2018-06-01T09:20:30.527Z,99.40
2018-06-01T09:22:57.975Z,98.90
2018-06-01T09:25:25.408Z,98.80
2018-06-01T09:27:52.836Z,99.00
2018-06-01T09:30:20.271Z,98.00
2018-06-01T09:32:47.702Z,97.70
2018-06-01T09:35:15.130Z,97.30
2018-06-01T09:37:43.336Z,97.30
2018-06-01T09:40:10.773Z,97.30
2018-06-01T09:42:38.204Z,97.40
2018-06-01T09:45:05.642Z,96.80
2018-06-01T09:47:33.168Z,97.00
2018-06-01T09:50:00.607Z,97.10
2018-06-01T09:52:28.036Z,96.70
2018-06-01T09:54:55.476Z,97.10
2018-06-01T09:57:22.906Z,96.50
2018-06-01T09:59:50.344Z,95.00
2018-06-01T10:02:17.779Z,95.50
2018-06-01T10:04:45.984Z,95.90
2018-06-01T10:07:13.424Z,95.80
2018-06-01T10:09:41.040Z,94.70
2018-06-01T10:12:08.472Z,95.70
2018-06-01T10:14:35.902Z,96.00
2018-06-01T10:17:04.261Z,97.00
2018-06-01T10:19:32.456Z,95.70
2018-06-01T10:21:59.908Z,95.70
2018-06-01T10:24:28.141Z,93.00
2018-06-01T10:26:55.576Z,93.00
2018-06-01T10:29:23.751Z,92.10
2018-06-01T10:31:51.196Z,89.50
2018-06-01T10:34:18.642Z,80.80
2018-06-01T10:36:46.069Z,78.50
2018-06-01T10:39:14.272Z,73.80
2018-06-01T10:41:41.712Z,73.60
2018-06-01T10:44:09.916Z,75.90
2018-06-01T10:46:37.359Z,76.00
2018-06-01T10:49:04.797Z,76.20
2018-06-01T10:51:33.015Z,81.40
2018-06-01T10:54:00.569Z,81.40
2018-06-01T10:56:28.059Z,75.00
2018-06-01T10:58:55.499Z,72.20
2018-06-01T11:01:22.931Z,72.10
2018-06-01T11:03:50.381Z,69.60
2018-06-01T11:06:18.581Z,70.70
2018-06-01T11:08:46.012Z,70.70
2018-06-01T11:11:13.454Z,72.60
2018-06-01T11:13:41.710Z,74.20
2018-06-01T11:16:09.092Z,74.20
2018-06-01T11:18:37.306Z,71.60
2018-06-01T11:21:04.741Z,71.60
2018-06-01T11:23:32.177Z,72.30
2018-06-01T11:26:00.405Z,73.10
2018-06-01T11:28:27.820Z,73.10
2018-06-01T11:30:56.063Z,70.60
2018-06-01T11:33:23.497Z,70.50
2018-06-01T11:35:50.933Z,68.80
2018-06-01T11:38:18.382Z,68.70
2018-06-01T11:40:46.567Z,67.50
2018-06-01T11:43:14.000Z,67.50
2018-06-01T11:45:41.443Z,70.10
2018-06-01T11:48:09.644Z,65.80
2018-06-01T11:50:37.119Z,65.80
2018-06-01T11:53:04.688Z,59.20
2018-06-01T11:55:32.126Z,61.10
2018-06-01T11:57:59.560Z,59.50
2018-06-01T12:00:27.771Z,63.20
2018-06-01T12:02:55.451Z,63.20
2018-06-01T12:05:22.887Z,64.50
2018-06-01T12:07:50.321Z,68.90
2018-06-01T12:10:17.752Z,63.30
2018-06-01T12:12:45.193Z,68.40
2018-06-01T12:15:12.642Z,69.00
2018-06-01T12:17:40.079Z,71.90
2018-06-01T12:20:07.503Z,72.40
2018-06-01T12:22:34.939Z,69.60
2018-06-01T12:25:03.142Z,72.90
2018-06-01T12:27:30.576Z,72.50
2018-06-01T12:29:58.775Z,70.40
2018-06-01T12:32:26.217Z,70.50
2018-06-01T12:34:54.421Z,64.90
2018-06-01T12:37:21.867Z,64.90
2018-06-01T12:39:49.295Z,64.20
2018-06-01T12:42:17.503Z,59.00
2018-06-01T12:44:44.934Z,59.20
2018-06-01T12:47:13.150Z,58.80
2018-06-01T12:49:40.579Z,58.80
2018-06-01T12:52:08.781Z,56.20
2018-06-01T12:54:36.217Z,56.20
2018-06-01T12:57:05.343Z,57.80
2018-06-01T12:59:32.763Z,57.80
2018-06-01T13:02:01.173Z,63.30
2018-06-01T13:04:29.114Z,63.30
2018-06-01T13:06:56.595Z,68.30
2018-06-01T13:09:24.005Z,69.10
2018-06-01T13:11:51.518Z,70.70
2018-06-01T13:14:18.955Z,70.30
2018-06-01T13:16:46.385Z,70.00
2018-06-01T13:19:13.804Z,75.50
2018-06-01T13:21:41.289Z,72.30
2018-06-01T13:24:08.705Z,74.30
2018-06-01T13:26:36.136Z,77.50
2018-06-01T13:29:03.554Z,78.90
2018-06-01T13:31:31.001Z,76.10
2018-06-01T13:33:58.431Z,78.20
2018-06-01T13:36:25.868Z,72.80
2018-06-01T13:38:53.305Z,66.90
2018-06-01T13:41:20.753Z,68.30
2018-06-01T13:43:48.170Z,69.50
2018-06-01T13:46:15.591Z,68.70
2018-06-01T13:48:43.024Z,70.00
2018-06-01T13:51:10.466Z,65.30
2018-06-01T13:53:37.897Z,66.40
2018-06-01T13:56:05.351Z,67.20
2018-06-01T13:58:32.799Z,67.40
2018-06-01T14:01:00.233Z,68.70
2018-06-01T14:03:28.440Z,71.50
2018-06-01T14:05:55.875Z,71.50
2018-06-01T14:08:23.306Z,70.40
2018-06-01T14:10:50.732Z,71.10
2018-06-01T14:13:18.167Z,72.40
2018-06-01T14:15:45.605Z,72.00
2018-06-01T14:18:13.035Z,72.50
2018-06-01T14:20:40.465Z,71.30
2018-06-01T14:23:07.899Z,74.60
2018-06-01T14:25:35.336Z,78.70
2018-06-01T14:28:02.784Z,82.60
2018-06-01T14:30:31.212Z,84.00
2018-06-01T14:32:58.635Z,84.10
2018-06-01T14:35:26.078Z,86.90
2018-06-01T14:37:54.281Z,90.00
2018-06-01T14:40:21.724Z,90.00
2018-06-01T14:42:49.269Z,90.50
2018-06-01T14:45:17.453Z,91.30
2018-06-01T14:47:44.904Z,91.30
2018-06-01T14:50:13.102Z,89.80
2018-06-01T14:52:40.546Z,89.70
2018-06-01T14:55:07.971Z,85.90
2018-06-01T14:57:35.403Z,84.60
2018-06-01T15:00:02.846Z,84.30
2018-06-01T15:02:30.290Z,83.30
2018-06-01T15:04:57.724Z,84.80
2018-06-01T15:07:25.933Z,80.40
2018-06-01T15:09:53.358Z,80.30
2018-06-01T15:12:21.570Z,78.80
2018-06-01T15:14:48.997Z,78.70
2018-06-01T15:17:16.447Z,77.30
2018-06-01T15:19:44.675Z,78.90
2018-06-01T15:22:12.099Z,78.90
2018-06-01T15:24:39.537Z,76.40
2018-06-01T15:27:06.980Z,76.00
2018-06-01T15:29:34.403Z,78.70
2018-06-01T15:32:01.839Z,78.50
2018-06-01T15:34:29.275Z,75.50
2018-06-01T15:36:56.715Z,75.70
2018-06-01T15:39:24.929Z,76.30
2018-06-01T15:41:52.363Z,76.20
2018-06-01T15:44:19.812Z,77.90
2018-06-01T15:46:48.015Z,78.50
2018-06-01T15:49:15.437Z,78.40
2018-06-01T15:51:43.705Z,80.60
2018-06-01T15:54:11.916Z,80.30
2018-06-01T15:56:39.339Z,80.30
2018-06-01T15:59:07.550Z,81.10
2018-06-01T16:01:34.982Z,81.10
2018-06-01T16:04:03.591Z,83.60
2018-06-01T16:06:31.017Z,83.60
2018-06-01T16:08:59.220Z,84.00
2018-06-01T16:11:26.648Z,83.90
2018-06-01T16:13:54.867Z,83.50
2018-06-01T16:16:22.307Z,83.50
2018-06-01T16:18:49.753Z,84.10
2018-06-01T16:21:17.967Z,86.50
2018-06-01T16:23:45.396Z,86.60
2018-06-01T16:26:12.847Z,84.70
2018-06-01T16:28:41.043Z,83.30
2018-06-01T16:31:08.485Z,83.10
2018-06-01T16:33:35.903Z,82.30
2018-06-01T16:36:03.349Z,84.20
2018-06-01T16:38:30.771Z,85.50
2018-06-01T16:40:58.216Z,88.00
2018-06-01T16:43:25.670Z,89.50
2018-06-01T16:45:53.114Z,90.30
2018-06-01T16:48:21.737Z,90.60
2018-06-01T16:50:49.192Z,90.60
2018-06-01T16:53:16.627Z,91.20
2018-06-01T16:55:44.861Z,91.30
2018-06-01T16:58:12.281Z,91.20
2018-06-01T17:00:39.724Z,91.50
2018-06-01T17:03:07.188Z,91.60
2018-06-01T17:05:34.639Z,91.70
2018-06-01T17:08:02.115Z,92.30
2018-06-01T17:10:30.274Z,92.30
2018-06-01T17:12:57.700Z,92.30
2018-06-01T17:15:25.919Z,92.70
2018-06-01T17:17:53.343Z,92.70
2018-06-01T17:20:21.549Z,92.40
2018-06-01T17:22:48.989Z,92.40
2018-06-01T17:25:16.419Z,92.90
2018-06-01T17:27:43.875Z,93.10
2018-06-01T17:30:11.296Z,93.10
2018-06-01T17:32:38.755Z,93.40
2018-06-01T17:35:06.194Z,93.90
2018-06-01T17:37:33.629Z,93.80
2018-06-01T17:40:01.823Z,94.30
2018-06-01T17:42:29.318Z,94.30
2018-06-01T17:44:56.758Z,94.50
2018-06-01T17:47:24.187Z,94.70
2018-06-01T17:49:51.628Z,95.10
2018-06-01T17:52:19.848Z,94.30
2018-06-01T17:54:47.303Z,94.30
2018-06-01T17:57:14.754Z,94.90
2018-06-01T17:59:42.220Z,94.90
2018-06-01T18:02:09.659Z,95.20
2018-06-01T18:04:37.091Z,95.00
2018-06-01T18:07:05.522Z,94.70
2018-06-01T18:09:32.944Z,94.90
2018-06-01T18:12:00.516Z,94.90
2018-06-01T18:14:27.995Z,96.20
2018-06-01T18:16:55.451Z,96.20
2018-06-01T18:19:22.906Z,95.90
2018-06-01T18:21:50.332Z,96.20
2018-06-01T18:24:17.797Z,95.50
2018-06-01T18:26:45.270Z,95.90
2018-06-01T18:29:12.720Z,96.70
2018-06-01T18:31:40.209Z,96.40
2018-06-01T18:34:07.642Z,96.40
2018-06-01T18:36:35.118Z,96.10
2018-06-01T18:39:02.554Z,95.90
2018-06-01T18:41:30.029Z,96.00
2018-06-01T18:43:57.531Z,95.70
2018-06-01T18:46:24.946Z,95.80
2018-06-01T18:48:52.976Z,96.30
2018-06-01T18:51:20.513Z,95.80
2018-06-01T18:53:48.156Z,95.80
2018-06-01T18:56:15.584Z,95.90
2018-06-01T18:58:43.024Z,95.50
2018-06-01T19:01:10.451Z,95.70
2018-06-01T19:03:38.661Z,95.00
2018-06-01T19:06:06.096Z,94.90
2018-06-01T19:08:34.300Z,95.50
2018-06-01T19:11:01.774Z,95.40
2018-06-01T19:13:29.223Z,95.80
2018-06-01T19:15:56.669Z,96.20
2018-06-01T19:18:24.108Z,96.20
2018-06-01T19:20:51.557Z,96.30
2018-06-01T19:23:19.788Z,96.30
2018-06-01T19:25:47.322Z,96.30
2018-06-01T19:28:14.758Z,96.10
2018-06-01T19:30:42.191Z,96.00
2018-06-01T19:33:10.416Z,96.40
2018-06-01T19:35:37.881Z,96.40
2018-06-01T19:38:05.660Z,95.80
2018-06-01T19:40:33.100Z,95.70
2018-06-01T19:43:00.540Z,95.80
2018-06-01T19:45:28.114Z,96.50
2018-06-01T19:47:55.532Z,95.40
2018-06-01T19:50:23.759Z,96.10
2018-06-01T19:52:51.199Z,96.10
2018-06-01T19:55:18.647Z,96.10
2018-06-01T19:57:46.077Z,96.50
2018-06-01T20:00:14.271Z,95.80
2018-06-01T20:02:41.716Z,95.80
2018-06-01T20:05:09.924Z,96.00
2018-06-01T20:07:39.346Z,96.00
2018-06-01T20:10:06.808Z,96.70
2018-06-01T20:12:34.283Z,96.50
2018-06-01T20:15:01.731Z,96.30
2018-06-01T20:17:29.163Z,96.60
2018-06-01T20:19:56.607Z,96.60
2018-06-01T20:22:24.059Z,96.60
2018-06-01T20:24:52.245Z,95.90
2018-06-01T20:27:19.687Z,95.80
2018-06-01T20:29:47.120Z,95.40
2018-06-01T20:32:14.553Z,95.60
2018-06-01T20:34:42.083Z,95.70
2018-06-01T20:37:09.499Z,95.70
2018-06-01T20:39:37.691Z,96.20
2018-06-01T20:42:05.821Z,96.10
2018-06-01T20:44:33.255Z,96.40
2018-06-01T20:47:00.699Z,96.10
2018-06-01T20:49:28.196Z,96.30
2018-06-01T20:51:55.628Z,96.10
2018-06-01T20:54:23.068Z,96.10
2018-06-01T20:56:50.538Z,96.40
2018-06-01T20:59:17.973Z,96.40
2018-06-01T21:01:45.686Z,96.30
2018-06-01T21:04:13.136Z,95.80
2018-06-01T21:06:40.672Z,96.00
2018-06-01T21:09:08.137Z,95.80
2018-06-01T21:11:35.612Z,96.00
2018-06-01T21:14:03.041Z,96.40
2018-06-01T21:16:30.476Z,96.00
2018-06-01T21:18:57.980Z,96.10
2018-06-01T21:21:25.431Z,96.40
2018-06-01T21:23:52.852Z,95.80
2018-06-01T21:26:20.274Z,96.20
2018-06-01T21:28:47.759Z,96.00
2018-06-01T21:31:15.958Z,95.60
2018-06-01T21:33:43.388Z,95.60
2018-06-01T21:36:11.619Z,95.90
2018-06-01T21:38:39.055Z,95.90
2018-06-01T21:41:06.520Z,96.00
2018-06-01T21:43:33.972Z,95.90
2018-06-01T21:46:01.426Z,95.50
2018-06-01T21:48:28.908Z,95.60
2018-06-01T21:50:56.346Z,95.60
2018-06-01T21:53:23.782Z,95.10
2018-06-01T21:55:52.275Z,95.20
2018-06-01T21:58:19.710Z,95.40
2018-06-01T22:00:48.667Z,96.70
2018-06-01T22:03:16.108Z,96.60
2018-06-01T22:05:46.212Z,96.20
2018-06-01T22:08:13.656Z,96.10
2018-06-01T22:10:41.108Z,96.10
2018-06-01T22:13:09.322Z,96.90
2018-06-01T22:15:36.742Z,96.90
2018-06-01T22:18:04.167Z,96.30
2018-06-01T22:20:32.375Z,96.20
2018-06-01T22:22:59.802Z,96.10
2018-06-01T22:25:28.005Z,97.20
2018-06-01T22:27:55.429Z,97.00
2018-06-01T22:30:22.863Z,97.10
2018-06-01T22:32:50.296Z,97.60
2018-06-01T22:35:17.742Z,97.00
2018-06-01T22:37:45.163Z,97.00
2018-06-01T22:40:13.359Z,97.10
2018-06-01T22:42:40.794Z,97.00
2018-06-01T22:45:09.075Z,97.10
2018-06-01T22:47:37.268Z,96.80
2018-06-01T22:50:04.732Z,96.70
2018-06-01T22:52:32.147Z,97.60
2018-06-01T22:54:59.604Z,97.70
2018-06-01T22:57:27.040Z,97.30
2018-06-01T22:59:54.463Z,97.60
2018-06-01T23:02:21.897Z,98.60
2018-06-01T23:04:50.087Z,97.70
2018-06-01T23:07:18.288Z,98.50
2018-06-01T23:09:45.699Z,98.50
2018-06-01T23:12:13.904Z,98.20
2018-06-01T23:14:41.328Z,98.20
2018-06-01T23:17:09.539Z,98.10
2018-06-01T23:19:36.963Z,98.10
2018-06-01T23:22:06.099Z,98.10
2018-06-01T23:24:33.514Z,98.00
2018-06-01T23:27:01.725Z,98.80
2018-06-01T23:29:29.200Z,98.60
2018-06-01T23:31:56.641Z,97.70
2018-06-01T23:34:24.215Z,97.90
2018-06-01T23:36:51.644Z,98.00
2018-06-01T23:39:19.870Z,98.30
2018-06-01T23:41:47.327Z,98.30
2018-06-01T23:44:14.751Z,97.80
2018-06-01T23:46:42.188Z,98.20
2018-06-01T23:49:10.403Z,98.50
2018-06-01T23:51:37.835Z,98.50
2018-06-01T23:54:06.191Z,97.90
2018-06-01T23:56:34.404Z,97.90
2018-06-01T23:59:01.851Z,97.90
